createdAt,value
2018-09-18T00:00:47.835Z,9.93
2018-09-18T00:02:52.114Z,7.97
2018-09-18T00:04:56.561Z,8.43
2018-09-18T00:07:00.760Z,7.80
2018-09-18T00:09:06.310Z,7.70
2018-09-18T00:11:10.489Z,8.37
2018-09-18T00:13:14.659Z,7.03
2018-09-18T00:15:18.838Z,9.67
2018-09-18T00:17:23.037Z,9.13
2018-09-18T00:19:27.492Z,13.30
2018-09-18T00:21:31.840Z,7.40
2018-09-18T00:23:36.041Z,8.50
2018-09-18T00:25:40.406Z,6.73
2018-09-18T00:27:44.661Z,8.50
2018-09-18T00:29:48.855Z,9.23
2018-09-18T00:31:53.039Z,10.20
2018-09-18T00:33:57.253Z,10.77
2018-09-18T00:36:01.417Z,10.57
2018-09-18T00:38:05.646Z,8.13
2018-09-18T00:40:09.943Z,9.87
2018-09-18T00:42:14.135Z,9.03
2018-09-18T00:44:18.405Z,12.93
2018-09-18T00:46:22.597Z,11.13
2018-09-18T00:48:26.802Z,16.63
2018-09-18T00:50:31.029Z,12.33
2018-09-18T00:52:35.347Z,12.40
2018-09-18T00:54:39.862Z,15.60
2018-09-18T00:56:44.017Z,10.03
2018-09-18T00:58:48.261Z,10.13
2018-09-18T01:00:52.487Z,12.53
2018-09-18T01:02:56.695Z,9.87
2018-09-18T01:05:00.890Z,9.67
2018-09-18T01:07:05.069Z,10.27
2018-09-18T01:09:10.593Z,11.83
2018-09-18T01:11:15.024Z,10.73
2018-09-18T01:13:19.287Z,11.47
2018-09-18T01:15:23.551Z,10.33
2018-09-18T01:17:27.721Z,11.83
2018-09-18T01:19:31.974Z,9.73
2018-09-18T01:21:36.229Z,11.43
2018-09-18T01:23:40.562Z,10.67
2018-09-18T01:25:44.839Z,13.00
2018-09-18T01:27:49.020Z,13.40
2018-09-18T01:29:53.193Z,11.90
2018-09-18T01:31:57.338Z,11.90
2018-09-18T01:34:01.590Z,11.33
2018-09-18T01:36:05.941Z,11.70
2018-09-18T01:38:10.136Z,12.77
2018-09-18T01:40:14.322Z,11.10
2018-09-18T01:42:18.510Z,11.83
2018-09-18T01:44:22.767Z,11.90
2018-09-18T01:46:52.216Z,9.70
2018-09-18T01:48:57.154Z,10.63
2018-09-18T01:51:01.419Z,8.50
2018-09-18T01:53:05.875Z,12.60
2018-09-18T01:55:10.134Z,11.60
2018-09-18T01:57:14.343Z,13.43
2018-09-18T01:59:18.675Z,8.10
2018-09-18T02:01:22.907Z,11.13
2018-09-18T02:03:27.112Z,8.37
2018-09-18T02:05:31.251Z,9.80
2018-09-18T02:07:35.426Z,9.87
2018-09-18T02:09:39.622Z,14.03
2018-09-18T02:11:43.830Z,11.33
2018-09-18T02:13:48.038Z,7.50
2018-09-18T02:15:52.310Z,9.20
2018-09-18T02:17:56.515Z,10.43
2018-09-18T02:20:00.704Z,9.83
2018-09-18T02:22:05.049Z,10.00
2018-09-18T02:24:09.222Z,9.23
2018-09-18T02:26:13.448Z,7.87
2018-09-18T02:28:17.678Z,9.03
2018-09-18T02:30:21.931Z,10.30
2018-09-18T02:32:26.126Z,10.43
2018-09-18T02:34:30.289Z,9.77
2018-09-18T02:36:34.548Z,11.33
2018-09-18T02:38:39.466Z,11.80
2018-09-18T02:40:44.642Z,11.10
2018-09-18T02:42:49.192Z,13.20
2018-09-18T02:44:54.235Z,13.87
2018-09-18T02:46:58.521Z,9.90
2018-09-18T02:49:02.832Z,10.77
2018-09-18T02:51:07.526Z,11.77
2018-09-18T02:53:11.787Z,10.97
2018-09-18T02:55:16.203Z,10.87
2018-09-18T02:57:20.375Z,10.53
2018-09-18T02:59:24.559Z,8.80
2018-09-18T03:01:28.806Z,11.97
2018-09-18T03:03:33.206Z,9.23
2018-09-18T03:05:37.981Z,11.07
2018-09-18T03:07:43.233Z,11.67
2018-09-18T03:09:48.270Z,9.50
2018-09-18T03:11:53.377Z,12.33
2018-09-18T03:13:57.687Z,12.07
2018-09-18T03:16:01.983Z,12.30
2018-09-18T03:18:06.196Z,11.40
2018-09-18T03:20:10.410Z,8.53
2018-09-18T03:22:14.703Z,7.90
2018-09-18T03:24:19.102Z,12.67
2018-09-18T03:26:23.303Z,11.40
2018-09-18T03:28:27.631Z,9.00
2018-09-18T03:30:31.863Z,8.40
2018-09-18T03:32:36.139Z,9.07
2018-09-18T03:34:40.380Z,9.17
2018-09-18T03:36:44.568Z,9.60
2018-09-18T03:38:48.880Z,10.73
2018-09-18T03:40:53.067Z,8.10
2018-09-18T03:42:57.315Z,8.17
2018-09-18T03:45:01.559Z,8.87
2018-09-18T03:47:05.791Z,9.77
2018-09-18T03:49:10.106Z,8.77
2018-09-18T03:51:14.306Z,8.10
2018-09-18T03:53:18.481Z,8.23
2018-09-18T03:55:22.714Z,8.67
2018-09-18T03:57:26.913Z,6.90
2018-09-18T03:59:31.121Z,6.00
2018-09-18T04:01:35.369Z,9.50
2018-09-18T04:03:39.545Z,9.00
2018-09-18T04:05:43.800Z,8.37
2018-09-18T04:07:48.073Z,7.70
2018-09-18T04:09:52.320Z,9.87
2018-09-18T04:11:56.607Z,7.97
2018-09-18T04:14:00.767Z,8.67
2018-09-18T04:16:04.980Z,7.87
2018-09-18T04:18:09.504Z,9.10
2018-09-18T04:20:13.710Z,5.57
2018-09-18T04:22:17.942Z,9.80
2018-09-18T04:24:22.182Z,7.20
2018-09-18T04:26:26.351Z,7.57
2018-09-18T04:28:30.575Z,6.97
2018-09-18T04:30:34.777Z,6.70
2018-09-18T04:32:38.984Z,5.27
2018-09-18T04:34:43.347Z,6.30
2018-09-18T04:36:47.668Z,7.23
2018-09-18T04:38:53.320Z,6.93
2018-09-18T04:40:57.909Z,12.40
2018-09-18T04:43:03.040Z,8.47
2018-09-18T04:45:07.743Z,10.97
2018-09-18T04:47:12.158Z,7.33
2018-09-18T04:49:16.975Z,8.17
2018-09-18T04:51:21.427Z,7.20
2018-09-18T04:53:26.565Z,7.67
2018-09-18T04:55:30.778Z,6.50
2018-09-18T04:57:34.963Z,17.40
2018-09-18T04:59:39.248Z,10.33
2018-09-18T05:01:43.534Z,4.27
2018-09-18T05:03:47.700Z,6.33
2018-09-18T05:05:52.227Z,4.83
2018-09-18T05:07:56.417Z,6.97
2018-09-18T05:10:00.591Z,9.13
2018-09-18T05:12:04.830Z,8.67
2018-09-18T05:14:09.057Z,7.20
2018-09-18T05:16:13.245Z,7.97
2018-09-18T05:18:17.474Z,7.23
2018-09-18T05:20:21.675Z,10.37
2018-09-18T05:22:26.227Z,9.27
2018-09-18T05:24:30.839Z,9.10
2018-09-18T05:26:35.864Z,7.90
2018-09-18T05:28:40.761Z,7.00
2018-09-18T05:30:44.936Z,7.47
2018-09-18T05:32:49.567Z,6.50
2018-09-18T05:34:53.814Z,7.23
2018-09-18T05:36:58.087Z,6.57
2018-09-18T05:39:02.371Z,10.13
2018-09-18T05:41:06.653Z,9.30
2018-09-18T05:43:10.844Z,8.83
2018-09-18T05:45:15.082Z,7.37
2018-09-18T05:47:19.251Z,7.50
2018-09-18T05:49:25.308Z,5.50
2018-09-18T05:51:29.546Z,8.40
2018-09-18T05:53:33.761Z,7.60
2018-09-18T05:55:37.987Z,8.47
2018-09-18T05:57:42.178Z,6.93
2018-09-18T05:59:46.391Z,9.93
2018-09-18T06:01:50.671Z,7.83
2018-09-18T06:03:54.926Z,9.53
2018-09-18T06:05:59.246Z,7.43
2018-09-18T06:08:03.426Z,14.20
2018-09-18T06:10:07.765Z,7.60
2018-09-18T06:12:12.045Z,8.57
2018-09-18T06:14:16.382Z,5.13
2018-09-18T06:16:20.572Z,7.63
2018-09-18T06:18:24.745Z,5.43
2018-09-18T06:20:28.933Z,10.07
2018-09-18T06:22:33.158Z,10.63
2018-09-18T06:24:37.414Z,9.67
2018-09-18T06:26:41.710Z,9.67
2018-09-18T06:28:45.893Z,5.67
2018-09-18T06:30:50.109Z,8.17
2018-09-18T06:32:54.278Z,5.37
2018-09-18T06:34:58.629Z,7.93
2018-09-18T06:37:02.918Z,4.00
2018-09-18T06:39:09.507Z,10.60
2018-09-18T06:41:13.694Z,5.90
2018-09-18T06:43:18.218Z,8.20
2018-09-18T06:45:22.498Z,6.07
2018-09-18T06:47:26.765Z,5.17
2018-09-18T06:49:30.955Z,4.47
2018-09-18T06:51:35.196Z,5.53
2018-09-18T06:53:39.459Z,6.77
2018-09-18T06:55:43.643Z,6.43
2018-09-18T06:57:47.840Z,9.17
2018-09-18T06:59:52.067Z,4.90
2018-09-18T07:01:56.222Z,9.27
2018-09-18T07:04:00.458Z,4.80
2018-09-18T07:06:04.639Z,6.13
2018-09-18T07:08:08.814Z,6.73
2018-09-18T07:10:13.057Z,9.53
2018-09-18T07:12:17.292Z,9.33
2018-09-18T07:14:21.519Z,11.00
2018-09-18T07:16:25.682Z,8.93
2018-09-18T07:18:29.898Z,5.30
2018-09-18T07:20:34.174Z,5.27
2018-09-18T07:22:38.354Z,5.83
2018-09-18T07:24:42.572Z,8.50
2018-09-18T07:26:46.871Z,8.73
2018-09-18T07:28:51.126Z,4.43
2018-09-18T07:30:55.399Z,5.20
2018-09-18T07:32:59.587Z,5.83
2018-09-18T07:35:04.118Z,5.13
2018-09-18T07:37:08.272Z,7.20
2018-09-18T07:39:13.052Z,5.70
2018-09-18T07:41:17.265Z,4.93
2018-09-18T07:43:22.516Z,8.27
2018-09-18T07:45:28.123Z,7.07
2018-09-18T07:47:32.378Z,6.07
2018-09-18T07:49:36.667Z,5.87
2018-09-18T07:51:40.899Z,5.40
2018-09-18T07:53:45.112Z,6.07
2018-09-18T07:55:49.331Z,5.87
2018-09-18T07:57:53.699Z,6.37
2018-09-18T07:59:57.906Z,13.47
2018-09-18T08:02:02.072Z,11.50
2018-09-18T08:04:06.324Z,6.20
2018-09-18T08:06:10.530Z,6.93
2018-09-18T08:08:14.786Z,6.40
2018-09-18T08:10:19.013Z,5.27
2018-09-18T08:12:23.255Z,7.53
2018-09-18T08:14:27.506Z,8.00
2018-09-18T08:16:31.683Z,6.03
2018-09-18T08:18:35.854Z,8.40
2018-09-18T08:20:40.157Z,7.43
2018-09-18T08:22:44.632Z,7.53
2018-09-18T08:24:49.095Z,4.80
2018-09-18T08:26:53.279Z,7.03
2018-09-18T08:28:57.493Z,5.03
2018-09-18T08:31:01.691Z,4.27
2018-09-18T08:33:06.051Z,5.17
2018-09-18T08:35:10.234Z,7.47
2018-09-18T08:37:14.432Z,6.77
2018-09-18T08:39:18.741Z,5.73
2018-09-18T08:41:23.021Z,6.83
2018-09-18T08:43:27.267Z,4.40
2018-09-18T08:45:31.512Z,3.73
2018-09-18T08:47:36.089Z,5.20
2018-09-18T08:49:40.691Z,8.30
2018-09-18T08:51:44.934Z,6.83
2018-09-18T08:53:49.162Z,5.13
2018-09-18T08:55:53.682Z,5.53
2018-09-18T08:57:57.920Z,7.03
2018-09-18T09:00:02.136Z,3.90
2018-09-18T09:02:06.325Z,6.77
2018-09-18T09:04:10.501Z,4.47
2018-09-18T09:06:14.755Z,3.87
2018-09-18T09:08:19.089Z,5.50
2018-09-18T09:10:23.338Z,4.37
2018-09-18T09:12:27.483Z,3.67
2018-09-18T09:14:31.737Z,3.23
2018-09-18T09:16:35.889Z,4.23
2018-09-18T09:18:40.195Z,3.93
2018-09-18T09:20:44.401Z,4.70
2018-09-18T09:22:48.741Z,3.20
2018-09-18T09:24:52.933Z,6.97
2018-09-18T09:26:57.122Z,3.10
2018-09-18T09:29:01.318Z,5.87
2018-09-18T09:31:05.588Z,3.77
2018-09-18T09:33:10.092Z,3.43
2018-09-18T09:35:14.303Z,4.37
2018-09-18T09:37:18.642Z,3.20
2018-09-18T09:39:22.803Z,4.50
2018-09-18T09:41:27.019Z,3.40
2018-09-18T09:43:31.147Z,4.13
2018-09-18T09:45:35.711Z,4.47
2018-09-18T09:47:40.287Z,4.57
2018-09-18T09:49:44.463Z,4.77
2018-09-18T09:51:48.678Z,3.57
2018-09-18T09:53:52.953Z,8.67
2018-09-18T09:55:57.234Z,4.40
2018-09-18T09:58:01.463Z,2.90
2018-09-18T10:00:06.743Z,3.00
2018-09-18T10:02:16.938Z,4.37
2018-09-18T10:04:21.127Z,4.07
2018-09-18T10:06:26.054Z,8.40
2018-09-18T10:08:30.295Z,6.10
2018-09-18T10:10:34.512Z,3.93
2018-09-18T10:12:39.039Z,5.90
2018-09-18T10:14:43.248Z,6.80
2018-09-18T10:16:47.478Z,4.67
2018-09-18T10:18:51.668Z,8.50
2018-09-18T10:20:55.873Z,8.47
2018-09-18T10:23:00.065Z,5.33
2018-09-18T10:25:04.599Z,8.50
2018-09-18T10:27:08.860Z,9.40
2018-09-18T10:29:12.937Z,5.73
2018-09-18T10:31:17.219Z,7.27
2018-09-18T10:33:21.418Z,7.30
2018-09-18T10:35:25.624Z,6.63
2018-09-18T10:37:29.790Z,8.17
2018-09-18T10:39:34.074Z,15.17
2018-09-18T10:41:38.311Z,15.53
2018-09-18T10:43:42.588Z,15.43
2018-09-18T10:45:46.800Z,18.97
2018-09-18T10:47:51.258Z,13.07
2018-09-18T10:49:55.638Z,12.10
2018-09-18T10:51:59.811Z,11.53
2018-09-18T10:54:04.668Z,11.97
2018-09-18T10:56:08.907Z,16.80
2018-09-18T10:58:13.017Z,16.17
2018-09-18T11:00:17.226Z,11.50
2018-09-18T11:02:21.547Z,13.07
2018-09-18T11:04:25.737Z,13.67
2018-09-18T11:06:29.944Z,12.03
2018-09-18T11:08:34.569Z,13.83
2018-09-18T11:10:39.899Z,12.83
2018-09-18T11:12:44.084Z,10.47
2018-09-18T11:14:48.593Z,19.17
2018-09-18T11:16:52.855Z,15.97
2018-09-18T11:18:57.198Z,17.83
2018-09-18T11:21:05.633Z,22.67
2018-09-18T11:23:11.949Z,17.87
2018-09-18T11:25:17.045Z,23.27
2018-09-18T11:27:21.210Z,19.77
2018-09-18T11:29:25.447Z,24.77
2018-09-18T11:31:29.878Z,15.97
2018-09-18T11:33:34.061Z,18.03
2018-09-18T11:35:38.256Z,18.80
2018-09-18T11:37:42.484Z,16.77
2018-09-18T11:39:46.717Z,14.80
2018-09-18T11:41:51.211Z,27.33
2018-09-18T11:43:55.386Z,21.80
2018-09-18T11:45:59.793Z,26.70
2018-09-18T11:48:03.920Z,28.13
2018-09-18T11:50:08.228Z,39.10
2018-09-18T11:52:12.402Z,40.60
2018-09-18T11:54:16.626Z,22.63
2018-09-18T11:56:20.778Z,30.87
2018-09-18T11:58:25.031Z,32.47
2018-09-18T12:00:29.284Z,12.67
2018-09-18T12:02:33.919Z,13.63
2018-09-18T12:04:38.186Z,9.67
2018-09-18T12:06:42.326Z,11.50
2018-09-18T12:08:46.618Z,11.53
2018-09-18T12:10:50.798Z,11.30
2018-09-18T12:12:55.095Z,10.33
2018-09-18T12:14:59.322Z,10.07
2018-09-18T12:17:03.640Z,8.83
2018-09-18T12:19:08.302Z,8.40
2018-09-18T12:21:12.496Z,5.53
2018-09-18T12:23:16.669Z,7.93
2018-09-18T12:25:20.903Z,7.47
2018-09-18T12:27:25.160Z,11.03
2018-09-18T12:29:29.386Z,8.07
2018-09-18T12:31:33.693Z,8.60
2018-09-18T12:33:37.910Z,7.83
2018-09-18T12:35:42.202Z,9.30
2018-09-18T12:37:46.359Z,34.73
2018-09-18T12:39:50.599Z,13.67
2018-09-18T12:41:54.899Z,19.20
2018-09-18T12:43:58.980Z,9.93
2018-09-18T12:46:03.209Z,8.37
2018-09-18T12:48:07.561Z,5.77
2018-09-18T12:50:11.936Z,6.20
2018-09-18T12:52:15.970Z,8.80
2018-09-18T12:54:20.103Z,9.00
2018-09-18T12:56:24.296Z,8.60
2018-09-18T12:58:28.544Z,8.97
2018-09-18T13:00:32.685Z,9.57
2018-09-18T13:02:36.890Z,7.93
2018-09-18T13:04:41.023Z,6.73
2018-09-18T13:06:45.385Z,7.33
2018-09-18T13:08:49.585Z,10.20
2018-09-18T13:10:54.306Z,4.80
2018-09-18T13:12:58.589Z,9.43
2018-09-18T13:15:03.530Z,7.15
2018-09-18T13:17:08.083Z,8.87
2018-09-18T13:19:12.283Z,7.75
2018-09-18T13:21:16.545Z,4.77
2018-09-18T13:23:20.751Z,7.20
2018-09-18T13:25:24.967Z,6.30
2018-09-18T13:27:29.120Z,12.33
2018-09-18T13:29:33.381Z,7.40
2018-09-18T13:31:37.594Z,4.13
2018-09-18T13:33:41.932Z,6.25
2018-09-18T13:35:46.263Z,8.28
2018-09-18T13:37:50.775Z,4.87
2018-09-18T13:39:54.951Z,10.43
2018-09-18T13:41:59.172Z,4.10
2018-09-18T13:44:03.360Z,7.00
2018-09-18T13:46:07.637Z,5.65
2018-09-18T13:48:11.885Z,5.50
2018-09-18T13:50:16.191Z,7.23
2018-09-18T13:52:20.392Z,4.85
2018-09-18T13:54:24.730Z,10.40
2018-09-18T13:56:29.166Z,6.90
2018-09-18T13:58:33.305Z,5.28
2018-09-18T14:00:37.511Z,6.22
2018-09-18T14:02:41.761Z,7.55
2018-09-18T14:04:46.040Z,11.28
2018-09-18T14:06:50.280Z,5.80
2018-09-18T14:08:54.500Z,4.37
2018-09-18T14:10:58.648Z,4.47
2018-09-18T14:13:02.877Z,7.00
2018-09-18T14:15:07.168Z,3.83
2018-09-18T14:17:11.415Z,9.05
2018-09-18T14:19:15.569Z,5.97
2018-09-18T14:21:19.777Z,10.25
2018-09-18T14:23:23.973Z,8.50
2018-09-18T14:25:28.482Z,9.13
2018-09-18T14:27:32.630Z,5.78
2018-09-18T14:29:36.840Z,5.28
2018-09-18T14:31:41.074Z,4.83
2018-09-18T14:33:45.280Z,5.33
2018-09-18T14:35:49.552Z,8.73
2018-09-18T14:37:53.756Z,5.42
2018-09-18T14:39:58.037Z,7.10
2018-09-18T14:42:02.242Z,6.28
2018-09-18T14:44:06.488Z,9.58
2018-09-18T14:46:10.739Z,6.47
2018-09-18T14:48:14.991Z,11.88
2018-09-18T14:50:19.194Z,3.77
2018-09-18T14:52:23.487Z,4.62
2018-09-18T14:54:27.676Z,4.22
2018-09-18T14:56:31.978Z,7.60
2018-09-18T14:58:36.171Z,7.85
2018-09-18T15:00:40.331Z,3.95
2018-09-18T15:02:44.836Z,7.70
2018-09-18T15:04:49.339Z,6.92
2018-09-18T15:06:53.580Z,4.00
2018-09-18T15:08:57.770Z,4.20
2018-09-18T15:11:01.926Z,3.50
2018-09-18T15:13:06.507Z,5.62
2018-09-18T15:15:10.734Z,3.98
2018-09-18T15:17:14.940Z,4.25
2018-09-18T15:19:19.505Z,5.65
2018-09-18T15:21:23.654Z,7.35
2018-09-18T15:23:27.881Z,4.58
2018-09-18T15:25:32.153Z,6.65
2018-09-18T15:27:36.439Z,3.17
2018-09-18T15:29:40.970Z,10.82
2018-09-18T15:31:45.164Z,5.00
2018-09-18T15:33:49.297Z,6.30
2018-09-18T15:35:53.541Z,5.72
2018-09-18T15:37:57.762Z,8.00
2018-09-18T15:40:02.006Z,5.83
2018-09-18T15:42:06.101Z,4.05
2018-09-18T15:44:10.306Z,5.37
2018-09-18T15:46:14.432Z,8.98
2018-09-18T15:48:18.667Z,5.40
2018-09-18T15:50:22.917Z,6.97
2018-09-18T15:52:27.149Z,10.18
2018-09-18T15:54:31.332Z,6.45
2018-09-18T15:56:35.591Z,10.25
2018-09-18T15:58:39.861Z,8.18
2018-09-18T16:00:44.022Z,6.60
2018-09-18T16:02:48.241Z,6.08
2018-09-18T16:04:52.457Z,9.45
2018-09-18T16:06:56.608Z,5.25
2018-09-18T16:09:00.894Z,8.60
2018-09-18T16:11:05.052Z,8.05
2018-09-18T16:13:09.206Z,4.85
2018-09-18T16:15:13.501Z,5.67
2018-09-18T16:17:17.700Z,9.90
2018-09-18T16:19:22.227Z,6.28
2018-09-18T16:21:26.415Z,7.50
2018-09-18T16:23:30.573Z,8.25
2018-09-18T16:25:36.821Z,14.13
2018-09-18T16:27:41.698Z,10.10
2018-09-18T16:29:45.904Z,7.22
2018-09-18T16:31:50.131Z,9.25
2018-09-18T16:33:54.313Z,6.55
2018-09-18T16:35:58.606Z,9.48
2018-09-18T16:38:02.842Z,10.75
2018-09-18T16:40:07.020Z,8.70
2018-09-18T16:42:12.700Z,14.20
2018-09-18T16:44:16.910Z,5.70
2018-09-18T16:46:21.087Z,10.50
2018-09-18T16:48:25.353Z,12.53
2018-09-18T16:50:29.575Z,7.67
2018-09-18T16:52:33.911Z,15.65
2018-09-18T16:54:38.185Z,11.20
2018-09-18T16:56:42.351Z,10.00
2018-09-18T16:58:46.740Z,6.15
2018-09-18T17:00:50.991Z,6.78
2018-09-18T17:02:55.564Z,10.05
2018-09-18T17:04:59.739Z,8.70
2018-09-18T17:07:03.953Z,10.10
2018-09-18T17:09:08.753Z,11.88
2018-09-18T17:11:12.982Z,10.03
2018-09-18T17:13:17.222Z,6.20
2018-09-18T17:15:21.465Z,9.83
2018-09-18T17:17:25.611Z,4.70
2018-09-18T17:19:29.791Z,12.10
2018-09-18T17:21:33.958Z,7.37
2018-09-18T17:23:38.152Z,9.68
2018-09-18T17:25:42.353Z,9.93
2018-09-18T17:27:46.539Z,9.33
2018-09-18T17:29:50.769Z,12.28
2018-09-18T17:31:54.999Z,9.63
2018-09-18T17:33:59.177Z,12.35
2018-09-18T17:36:03.377Z,9.58
2018-09-18T17:38:07.595Z,12.00
2018-09-18T17:40:11.792Z,8.57
2018-09-18T17:42:15.994Z,8.13
2018-09-18T17:44:20.148Z,8.43
2018-09-18T17:46:24.335Z,9.45
2018-09-18T17:48:28.817Z,7.92
2018-09-18T17:50:33.038Z,8.23
2018-09-18T17:52:37.264Z,10.82
2018-09-18T17:54:41.454Z,9.37
2018-09-18T17:57:10.359Z,10.72
2018-09-18T17:59:14.591Z,9.68
2018-09-18T18:01:18.876Z,12.53
2018-09-18T18:03:23.119Z,11.03
2018-09-18T18:05:27.621Z,11.60
2018-09-18T18:07:31.812Z,12.35
2018-09-18T18:09:36.526Z,9.30
2018-09-18T18:11:41.044Z,11.00
2018-09-18T18:13:45.357Z,9.57
2018-09-18T18:15:49.529Z,6.17
2018-09-18T18:17:53.756Z,8.23
2018-09-18T18:19:58.045Z,6.77
2018-09-18T18:22:02.224Z,12.30
2018-09-18T18:24:06.462Z,6.30
2018-09-18T18:26:10.635Z,10.27
2018-09-18T18:28:14.978Z,12.07
2018-09-18T18:30:19.427Z,8.83
2018-09-18T18:32:23.700Z,15.87
2018-09-18T18:34:27.874Z,12.55
2018-09-18T18:36:32.026Z,13.20
2018-09-18T18:38:36.168Z,9.40
2018-09-18T18:40:40.397Z,9.40
2018-09-18T18:42:44.659Z,11.53
2018-09-18T18:44:48.950Z,9.03
2018-09-18T18:46:53.135Z,11.83
2018-09-18T18:48:57.376Z,9.53
2018-09-18T18:51:01.550Z,9.57
2018-09-18T18:53:05.786Z,12.33
2018-09-18T18:55:09.985Z,13.47
2018-09-18T18:57:14.114Z,10.30
2018-09-18T18:59:18.491Z,11.63
2018-09-18T19:01:22.682Z,15.10
2018-09-18T19:03:26.885Z,16.30
2018-09-18T19:05:31.164Z,15.83
2018-09-18T19:07:36.471Z,14.57
2018-09-18T19:09:40.634Z,14.60
2018-09-18T19:11:45.228Z,19.60
2018-09-18T19:13:49.411Z,19.40
2018-09-18T19:15:53.581Z,18.70
2018-09-18T19:17:58.069Z,12.87
2018-09-18T19:20:02.344Z,17.00
2018-09-18T19:22:06.550Z,17.27
2018-09-18T19:24:10.919Z,16.37
2018-09-18T19:26:15.115Z,16.77
2018-09-18T19:28:19.330Z,18.50
2018-09-18T19:30:23.608Z,17.53
2018-09-18T19:32:27.843Z,12.83
2018-09-18T19:34:32.059Z,22.93
2018-09-18T19:36:36.245Z,15.67
2018-09-18T19:38:40.446Z,22.10
2018-09-18T19:40:44.687Z,21.13
2018-09-18T19:42:48.845Z,20.33
2018-09-18T19:44:53.016Z,26.60
2018-09-18T19:46:57.419Z,21.57
2018-09-18T19:49:01.739Z,17.03
2018-09-18T19:51:06.091Z,20.97
2018-09-18T19:53:10.242Z,16.43
2018-09-18T19:55:14.891Z,14.00
2018-09-18T19:57:19.169Z,22.03
2018-09-18T19:59:23.537Z,15.23
2018-09-18T20:01:27.751Z,21.03
2018-09-18T20:03:32.007Z,10.70
2018-09-18T20:05:37.094Z,17.80
2018-09-18T20:07:41.391Z,18.87
2018-09-18T20:09:45.557Z,17.30
2018-09-18T20:11:49.753Z,17.87
2018-09-18T20:13:54.011Z,19.97
2018-09-18T20:15:58.229Z,16.67
2018-09-18T20:18:02.503Z,13.83
2018-09-18T20:20:06.772Z,16.87
2018-09-18T20:22:11.354Z,14.10
2018-09-18T20:24:15.527Z,19.80
2018-09-18T20:26:19.705Z,14.37
2018-09-18T20:28:23.906Z,15.53
2018-09-18T20:30:28.135Z,13.73
2018-09-18T20:32:32.270Z,20.53
2018-09-18T20:34:36.467Z,23.63
2018-09-18T20:36:40.716Z,20.23
2018-09-18T20:38:44.944Z,15.63
2018-09-18T20:40:49.166Z,18.17
2018-09-18T20:42:53.325Z,19.13
2018-09-18T20:44:57.555Z,15.67
2018-09-18T20:47:01.782Z,17.60
2018-09-18T20:51:10.150Z,18.97
2018-09-18T20:53:14.343Z,14.53
2018-09-18T20:55:18.589Z,15.33
2018-09-18T20:57:22.835Z,15.77
2018-09-18T20:59:27.093Z,13.60
2018-09-18T21:01:31.670Z,14.80
2018-09-18T21:03:35.890Z,17.43
2018-09-18T21:05:40.022Z,13.80
2018-09-18T21:07:44.238Z,13.23
2018-09-18T21:09:48.440Z,19.60
2018-09-18T21:11:52.617Z,25.27
2018-09-18T21:13:56.818Z,25.93
2018-09-18T21:16:00.957Z,16.83
2018-09-18T21:18:05.231Z,29.27
2018-09-18T21:20:09.475Z,19.47
2018-09-18T21:22:13.705Z,16.07
2018-09-18T21:24:17.931Z,26.83
2018-09-18T21:26:22.131Z,19.07
2018-09-18T21:28:26.579Z,20.57
2018-09-18T21:30:30.908Z,19.13
2018-09-18T21:32:35.242Z,18.23
2018-09-18T21:34:39.392Z,14.70
2018-09-18T21:36:43.570Z,23.20
2018-09-18T21:38:47.838Z,22.87
2018-09-18T21:40:52.188Z,16.47
2018-09-18T21:42:56.399Z,22.30
2018-09-18T21:45:00.887Z,15.57
2018-09-18T21:47:05.070Z,18.27
2018-09-18T21:49:09.332Z,14.07
2018-09-18T21:51:13.556Z,18.00
2018-09-18T21:53:17.762Z,20.73
2018-09-18T21:55:21.990Z,11.53
2018-09-18T21:57:26.224Z,25.90
2018-09-18T21:59:30.643Z,19.27
2018-09-18T22:01:34.843Z,20.23
2018-09-18T22:03:39.058Z,17.60
2018-09-18T22:05:43.270Z,15.00
2018-09-18T22:07:47.445Z,15.37
2018-09-18T22:09:52.634Z,15.40
2018-09-18T22:11:56.858Z,17.13
2018-09-18T22:14:01.062Z,18.70
2018-09-18T22:16:05.329Z,22.47
2018-09-18T22:18:09.544Z,19.17
2018-09-18T22:20:13.754Z,11.80
2018-09-18T22:22:18.035Z,15.57
2018-09-18T22:24:22.220Z,21.47
2018-09-18T22:26:26.482Z,24.43
2018-09-18T22:28:30.678Z,18.60
2018-09-18T22:30:35.022Z,13.60
2018-09-18T22:32:39.349Z,16.93
2018-09-18T22:34:43.558Z,20.57
2018-09-18T22:36:47.758Z,15.53
2018-09-18T22:38:52.043Z,16.27
2018-09-18T22:40:56.247Z,17.83
2018-09-18T22:43:00.479Z,19.13
2018-09-18T22:45:04.790Z,25.57
2018-09-18T22:47:09.018Z,18.33
2018-09-18T22:49:13.214Z,14.47
2018-09-18T22:51:17.419Z,22.63
2018-09-18T22:53:21.637Z,14.93
2018-09-18T22:55:26.301Z,13.87
2018-09-18T22:57:31.672Z,20.47
2018-09-18T22:59:35.914Z,16.53
2018-09-18T23:01:40.144Z,12.23
2018-09-18T23:03:44.330Z,16.43
2018-09-18T23:05:48.531Z,13.37
2018-09-18T23:07:52.702Z,16.97
2018-09-18T23:09:56.875Z,15.03
2018-09-18T23:12:01.081Z,18.30
2018-09-18T23:14:05.338Z,11.57
2018-09-18T23:16:09.550Z,16.60
2018-09-18T23:18:13.691Z,18.33
2018-09-18T23:20:17.864Z,13.67
2018-09-18T23:22:22.143Z,19.97
2018-09-18T23:24:26.394Z,19.07
2018-09-18T23:26:30.672Z,16.67
2018-09-18T23:28:34.875Z,25.23
2018-09-18T23:30:39.069Z,16.50
2018-09-18T23:32:43.276Z,12.77
2018-09-18T23:34:47.494Z,12.93
2018-09-18T23:36:51.692Z,21.53
2018-09-18T23:38:55.939Z,12.53
2018-09-18T23:41:01.327Z,11.43
2018-09-18T23:43:05.499Z,12.77
2018-09-18T23:45:09.692Z,17.90
2018-09-18T23:47:13.918Z,11.80
2018-09-18T23:49:18.151Z,14.03
2018-09-18T23:51:22.400Z,11.83
2018-09-18T23:53:26.618Z,12.27
2018-09-18T23:55:30.918Z,15.73
2018-09-18T23:57:35.150Z,14.50
2018-09-18T23:59:39.363Z,13.77
